Time;durP1;ratioP1;P1;durP2;ratioP2;P2;SDS_P1;SDS_P2;PMS_P1;PMS_P2;Temp;Humidity;BMP_temperature;BMP_pressure;BME280_temperature;BME280_humidity;BME280_pressure;Samples;Min_cycle;Max_cycle;Signal;HPM_P1;HPM_P2
2023/05/03 00:01:23;;;;;;;0.30;0.30;;;7.20;71.10;;;;;;5112521;28;20040;-69
2023/05/03 00:03:51;;;;;;;0.20;0.20;;;7.40;85.90;;;;;;5113078;28;20113;-69
2023/05/03 00:06:17;;;;;;;0.20;0.20;;;7.30;72.40;;;;;;5112551;28;20040;-69
2023/05/03 00:08:43;;;;;;;0.85;0.30;;;;;;;;;;5094068;28;20032;-69
2023/05/03 00:11:09;;;;;;;0.20;0.20;;;7.30;71.50;;;;;;5112536;28;20045;-69
2023/05/03 00:13:35;;;;;;;0.20;0.20;;;7.40;78.10;;;;;;5112583;28;20035;-68
2023/05/03 00:16:01;;;;;;;0.55;0.20;;;7.30;75.50;;;;;;5112296;28;20473;-69
2023/05/03 00:18:29;;;;;;;0.20;0.20;;;;;;;;;;5112279;28;20050;-69
2023/05/03 00:20:55;;;;;;;0.20;0.20;;;;;;;;;;5112702;28;20043;-69
2023/05/03 00:23:21;;;;;;;0.73;0.10;;;;;;;;;;5112781;28;20473;-69
2023/05/03 00:25:52;;;;;;;0.20;0.20;;;;;;;;;;5112450;28;20028;-69
2023/05/03 00:28:17;;;;;;;0.10;0.10;;;6.50;75.60;;;;;;5112404;28;20040;-69
2023/05/03 00:30:43;;;;;;;0.10;0.10;;;;;;;;;;5112428;28;20050;-69
2023/05/03 00:33:09;;;;;;;0.10;0.10;;;7.00;73.20;;;;;;5112142;28;20040;-68
2023/05/03 00:35:35;;;;;;;0.22;0.22;;;;;;;;;;5112014;28;20032;-69
2023/05/03 00:38:00;;;;;;;0.75;0.10;;;7.20;74.40;;;;;;5112399;28;20035;-68
2023/05/03 00:40:27;;;;;;;0.10;0.10;;;;;;;;;;5112264;28;20118;-69
2023/05/03 00:42:52;;;;;;;0.22;0.20;;;6.60;74.60;;;;;;5111911;28;20404;-69
2023/05/03 00:45:18;;;;;;;0.40;0.22;;;;;;;;;;5112405;28;20040;-69
2023/05/03 00:47:44;;;;;;;0.10;0.10;;;6.90;85.50;;;;;;5112449;28;20036;-70
2023/05/03 00:50:10;;;;;;;0.20;0.20;;;6.90;74.00;;;;;;5096450;28;20094;-68
2023/05/03 00:52:38;;;;;;;0.57;0.30;;;6.90;75.10;;;;;;5115582;28;20036;-68
2023/05/03 00:55:04;;;;;;;0.10;0.10;;;7.00;81.20;;;;;;5115975;28;20032;-69
2023/05/03 00:57:30;;;;;;;0.17;0.17;;;;;;;;;;5115884;28;20043;-69
2023/05/03 00:59:57;;;;;;;0.20;0.20;;;7.00;83.80;;;;;;5115737;28;20039;-69
2023/05/03 01:02:23;;;;;;;0.10;0.10;;;;;;;;;;5115362;28;20039;-69
2023/05/03 01:04:50;;;;;;;0.13;0.13;;;;;;;;;;5115902;28;20043;-69
2023/05/03 01:07:31;;;;;;;0.20;0.20;;;;;;;;;;5096546;28;20127;-69
2023/05/03 01:10:01;;;;;;;0.17;0.17;;;;;;;;;;5112954;28;20122;-69
2023/05/03 01:12:44;;;;;;;0.20;0.20;;;6.90;93.80;;;;;;5115218;28;20147;-68
2023/05/03 01:15:15;;;;;;;0.20;0.20;;;;;;;;;;5115096;28;20093;-69
2023/05/03 01:17:48;;;;;;;0.65;0.17;;;;;;;;;;5114981;28;20135;-69
2023/05/03 01:20:15;;;;;;;0.20;0.20;;;;;;;;;;5114876;28;20122;-69
2023/05/03 01:22:59;;;;;;;0.10;0.10;;;6.70;68.30;;;;;;5115076;28;20040;-69
2023/05/03 01:25:26;;;;;;;0.20;0.20;;;6.70;69.10;;;;;;5115473;28;20050;-70
2023/05/03 01:27:51;;;;;;;0.10;0.10;;;6.70;69.40;;;;;;5115303;28;20039;-69
2023/05/03 01:30:20;;;;;;;0.20;0.20;;;6.60;69.70;;;;;;5095987;28;20655;-69
2023/05/03 01:33:02;;;;;;;0.20;0.20;;;6.50;69.90;;;;;;5115208;28;20146;-68
2023/05/03 01:35:35;;;;;;;0.10;0.10;;;6.50;70.10;;;;;;5114823;28;20039;-68
2023/05/03 01:38:03;;;;;;;0.10;0.10;;;6.50;70.30;;;;;;5114677;28;20122;-68
2023/05/03 01:40:29;;;;;;;0.10;0.10;;;6.50;70.30;;;;;;5114799;28;20444;-68
2023/05/03 01:42:56;;;;;;;0.17;0.17;;;6.50;70.30;;;;;;5114609;28;20477;-68
2023/05/03 01:45:22;;;;;;;0.10;0.10;;;6.50;70.40;;;;;;5114568;28;20370;-69
2023/05/03 01:47:47;;;;;;;0.10;0.10;;;6.50;70.40;;;;;;5114630;28;20074;-69
2023/05/03 01:50:13;;;;;;;0.10;0.10;;;6.50;70.50;;;;;;5114444;28;20079;-68
2023/05/03 01:52:39;;;;;;;0.25;0.20;;;6.50;70.50;;;;;;5096182;28;20047;-68
2023/05/03 01:55:05;;;;;;;0.22;0.20;;;6.40;70.50;;;;;;5079787;28;20088;-68
2023/05/03 01:57:31;;;;;;;0.20;0.17;;;6.50;70.60;;;;;;5114906;28;20040;-69
2023/05/03 01:59:56;;;;;;;0.38;0.30;;;6.40;70.50;;;;;;5096041;28;20031;-69
2023/05/03 02:02:22;;;;;;;0.30;0.25;;;6.40;70.60;;;;;;5096537;28;20044;-69
2023/05/03 02:04:48;;;;;;;0.20;0.20;;;6.40;70.60;;;;;;5114219;28;20039;-69
2023/05/03 02:07:14;;;;;;;0.20;0.20;;;6.40;70.60;;;;;;5094350;28;20109;-69
2023/05/03 02:09:40;;;;;;;0.40;0.20;;;6.40;70.60;;;;;;5114868;28;20070;-69
2023/05/03 02:12:06;;;;;;;0.45;0.10;;;6.40;70.70;;;;;;5114352;28;20040;-69
2023/05/03 02:14:32;;;;;;;0.20;0.20;;;6.40;70.70;;;;;;5114429;28;20370;-68
2023/05/03 02:16:59;;;;;;;0.47;0.25;;;6.40;70.70;;;;;;5114794;28;20035;-69
2023/05/03 02:19:24;;;;;;;0.20;0.20;;;6.30;70.70;;;;;;5114904;28;20039;-69
2023/05/03 02:21:50;;;;;;;0.88;0.17;;;6.30;70.70;;;;;;5114124;28;20035;-69
2023/05/03 02:24:16;;;;;;;0.20;0.20;;;6.30;70.70;;;;;;5095932;28;20043;-68
2023/05/03 02:26:42;;;;;;;0.93;0.20;;;6.30;70.80;;;;;;5114097;28;20036;-68
2023/05/03 02:29:08;;;;;;;0.10;0.10;;;6.30;70.80;;;;;;5114611;28;20139;-69
2023/05/03 02:31:34;;;;;;;0.20;0.20;;;6.20;70.80;;;;;;5114154;28;20510;-68
2023/05/03 02:33:59;;;;;;;0.20;0.20;;;6.30;70.90;;;;;;5113852;28;20040;-69
2023/05/03 02:36:26;;;;;;;0.10;0.10;;;6.30;71.00;;;;;;5095557;28;20052;-69
2023/05/03 02:38:52;;;;;;;0.20;0.20;;;6.20;70.90;;;;;;5114296;28;20050;-68
2023/05/03 02:41:17;;;;;;;0.20;0.20;;;6.20;71.00;;;;;;5113764;28;20127;-68
2023/05/03 02:43:43;;;;;;;0.38;0.20;;;6.20;71.10;;;;;;5113876;28;20119;-69
2023/05/03 02:46:08;;;;;;;0.20;0.20;;;6.20;71.10;;;;;;5113704;28;20074;-69
2023/05/03 02:48:34;;;;;;;0.32;0.20;;;6.20;71.20;;;;;;5114205;28;20061;-68
2023/05/03 02:51:00;;;;;;;0.10;0.10;;;6.20;71.20;;;;;;5114128;28;20039;-69
2023/05/03 02:53:25;;;;;;;0.20;0.20;;;6.20;71.20;;;;;;5113798;28;20036;-69
2023/05/03 02:55:51;;;;;;;0.20;0.20;;;6.10;71.20;;;;;;5113582;28;20047;-69
2023/05/03 02:58:16;;;;;;;0.35;0.20;;;6.10;71.20;;;;;;5113502;28;20040;-68
2023/05/03 03:00:42;;;;;;;0.10;0.10;;;6.10;71.30;;;;;;5113427;28;20073;-69
2023/05/03 03:03:08;;;;;;;0.10;0.10;;;6.10;71.30;;;;;;5113470;28;20042;-69
2023/05/03 03:05:33;;;;;;;0.45;0.20;;;5.90;71.30;;;;;;5113482;28;20039;-68
2023/05/03 03:07:59;;;;;;;0.50;0.30;;;6.20;71.50;;;;;;5113604;28;20043;-69
2023/05/03 03:10:25;;;;;;;0.20;0.20;;;6.10;71.40;;;;;;5112929;28;20040;-69
2023/05/03 03:12:50;;;;;;;0.17;0.17;;;6.00;71.40;;;;;;5095619;28;20124;-69
2023/05/03 03:15:16;;;;;;;0.20;0.20;;;6.00;71.40;;;;;;5094712;28;20067;-68
2023/05/03 03:17:42;;;;;;;0.10;0.10;;;6.00;71.50;;;;;;5113256;28;20082;-68
2023/05/03 03:20:10;;;;;;;0.10;0.10;;;6.00;71.60;;;;;;5113195;28;20047;-69
2023/05/03 03:22:36;;;;;;;0.13;0.13;;;5.90;71.60;;;;;;5113525;28;20044;-68
2023/05/03 03:25:03;;;;;;;0.20;0.20;;;5.90;71.70;;;;;;5113546;28;20590;-69
2023/05/03 03:27:29;;;;;;;0.40;0.20;;;6.00;71.80;;;;;;5112983;28;20043;-69
2023/05/03 03:29:54;;;;;;;0.20;0.20;;;5.90;71.80;;;;;;5113537;28;20032;-69
2023/05/03 03:32:20;;;;;;;0.20;0.20;;;5.90;71.90;;;;;;5113043;28;20040;-68
2023/05/03 03:34:46;;;;;;;0.10;0.10;;;5.80;72.00;;;;;;5113071;28;20040;-69
2023/05/03 03:37:12;;;;;;;0.10;0.10;;;5.70;72.20;;;;;;5112956;28;20035;-68
2023/05/03 03:39:38;;;;;;;0.10;0.10;;;5.80;72.30;;;;;;5113187;28;20092;-69
2023/05/03 03:42:05;;;;;;;0.20;0.20;;;5.60;72.30;;;;;;5113476;28;20127;-69
2023/05/03 03:44:31;;;;;;;0.30;0.28;;;5.50;72.40;;;;;;5113501;28;20035;-69
2023/05/03 03:46:56;;;;;;;0.22;0.20;;;5.70;72.50;;;;;;5112824;28;20388;-69
2023/05/03 03:49:22;;;;;;;0.10;0.10;;;5.60;72.50;;;;;;5078014;28;20047;-69
2023/05/03 03:51:48;;;;;;;0.30;0.20;;;5.50;73.20;;;;;;5113361;28;20044;-69
2023/05/03 03:54:13;;;;;;;0.20;0.20;;;5.50;72.70;;;;;;5113247;28;20047;-68
2023/05/03 03:56:39;;;;;;;0.20;0.20;;;5.50;72.80;;;;;;5112722;28;20042;-69
2023/05/03 03:59:05;;;;;;;0.22;0.20;;;5.50;72.80;;;;;;5094350;28;20099;-70
2023/05/03 04:01:30;;;;;;;0.35;0.15;;;5.50;72.80;;;;;;5112624;28;20035;-68
2023/05/03 04:03:56;;;;;;;0.38;0.20;;;5.50;72.80;;;;;;5113129;28;20474;-69
2023/05/03 04:06:22;;;;;;;0.20;0.20;;;5.50;72.70;;;;;;5113127;28;20043;-69
2023/05/03 04:08:48;;;;;;;0.20;0.20;;;5.60;72.70;;;;;;5112560;28;20039;-69
2023/05/03 04:11:14;;;;;;;0.28;0.10;;;5.50;72.60;;;;;;5112408;28;20054;-69
2023/05/03 04:13:39;;;;;;;0.30;0.10;;;5.50;72.60;;;;;;5112692;28;20063;-69
2023/05/03 04:16:06;;;;;;;0.10;0.10;;;5.60;72.60;;;;;;5112970;28;20051;-69
2023/05/03 04:18:31;;;;;;;0.17;0.17;;;5.60;72.60;;;;;;5112304;28;20035;-69
2023/05/03 04:20:57;;;;;;;0.22;0.13;;;5.60;72.60;;;;;;5112821;28;20507;-69
2023/05/03 04:23:22;;;;;;;0.10;0.10;;;5.50;72.60;;;;;;5114003;28;20435;-69
2023/05/03 04:25:48;;;;;;;0.10;0.10;;;5.50;72.60;;;;;;5116551;28;20047;-70
2023/05/03 04:28:14;;;;;;;0.25;0.25;;;5.50;72.60;;;;;;5097829;28;20047;-69
2023/05/03 04:30:42;;;;;;;0.20;0.20;;;5.50;72.70;;;;;;5115979;28;20481;-68
2023/05/03 04:33:08;;;;;;;0.20;0.20;;;5.50;72.70;;;;;;5116274;28;20043;-69
2023/05/03 04:35:35;;;;;;;0.17;0.17;;;5.50;72.80;;;;;;5115936;28;20050;-69
2023/05/03 04:38:01;;;;;;;0.30;0.20;;;5.40;72.80;;;;;;5096486;28;20042;-68
2023/05/03 04:40:27;;;;;;;0.70;0.25;;;5.50;72.80;;;;;;5097497;28;20570;-69
2023/05/03 04:42:53;;;;;;;0.20;0.20;;;5.50;72.80;;;;;;5116082;28;20048;-69
2023/05/03 04:45:19;;;;;;;0.15;0.15;;;5.50;72.70;;;;;;5097418;28;20484;-68
2023/05/03 04:47:46;;;;;;;0.20;0.20;;;5.60;72.70;;;;;;5115758;28;20039;-69
2023/05/03 04:50:12;;;;;;;0.45;0.28;;;5.60;72.60;;;;;;5115663;28;20047;-69
2023/05/03 04:52:38;;;;;;;0.20;0.20;;;5.40;72.50;;;;;;5115632;28;20039;-69
2023/05/03 04:55:04;;;;;;;0.25;0.22;;;5.70;72.60;;;;;;5115771;28;20039;-68
2023/05/03 04:57:31;;;;;;;0.85;0.20;;;5.70;72.50;;;;;;5080781;28;20043;-69
2023/05/03 04:59:57;;;;;;;0.30;0.30;;;5.70;72.40;;;;;;5097665;28;20027;-69
2023/05/03 05:02:22;;;;;;;0.28;0.28;;;5.60;72.30;;;;;;5115502;28;20043;-69
2023/05/03 05:04:48;;;;;;;0.20;0.20;;;5.80;72.40;;;;;;5097473;28;20043;-69
2023/05/03 05:07:14;;;;;;;0.30;0.30;;;5.70;72.40;;;;;;5115536;28;20070;-69
2023/05/03 05:09:40;;;;;;;0.38;0.38;;;5.80;72.40;;;;;;5115974;28;20048;-69
2023/05/03 05:12:06;;;;;;;0.30;0.30;;;5.80;72.30;;;;;;5115569;28;20430;-69
2023/05/03 05:14:31;;;;;;;0.22;0.22;;;5.90;72.30;;;;;;5115782;28;20039;-68
2023/05/03 05:16:57;;;;;;;0.40;0.40;;;5.90;72.30;;;;;;5115960;28;20127;-69
2023/05/03 05:19:23;;;;;;;0.10;0.10;;;6.00;72.20;;;;;;5115859;28;20138;-68
2023/05/03 05:21:50;;;;;;;0.20;0.20;;;6.00;72.10;;;;;;5115351;28;20434;-69
2023/05/03 05:24:15;;;;;;;0.28;0.20;;;6.00;72.00;;;;;;5115147;28;20401;-69
2023/05/03 05:26:42;;;;;;;0.20;0.20;;;6.10;72.00;;;;;;5096929;28;20106;-68
2023/05/03 05:29:07;;;;;;;0.20;0.20;;;6.30;72.00;;;;;;5115011;28;20040;-68
2023/05/03 05:31:34;;;;;;;0.20;0.20;;;6.20;71.80;;;;;;5115251;28;20141;-69
2023/05/03 05:33:59;;;;;;;0.30;0.30;;;6.00;71.70;;;;;;5114511;28;20389;-69
2023/05/03 05:36:26;;;;;;;0.30;0.30;;;6.30;71.80;;;;;;5115030;28;20032;-69
2023/05/03 05:38:51;;;;;;;0.38;0.32;;;6.30;71.70;;;;;;5095402;28;20036;-69
2023/05/03 05:41:17;;;;;;;0.30;0.20;;;6.40;71.70;;;;;;5114874;28;20039;-68
2023/05/03 05:43:43;;;;;;;0.28;0.20;;;6.40;71.60;;;;;;5114864;28;20123;-68
2023/05/03 05:46:09;;;;;;;0.30;0.30;;;6.50;71.70;;;;;;5114770;28;20035;-69
2023/05/03 05:48:35;;;;;;;0.25;0.20;;;6.50;71.50;;;;;;5094732;28;20130;-69
2023/05/03 05:51:00;;;;;;;0.38;0.38;;;6.60;71.50;;;;;;5114722;28;20110;-69
2023/05/03 05:53:27;;;;;;;0.30;0.30;;;6.60;71.50;;;;;;5114955;28;20031;-68
2023/05/03 05:55:53;;;;;;;0.38;0.28;;;6.70;71.40;;;;;;5114969;28;20040;-69
2023/05/03 05:58:18;;;;;;;0.30;0.30;;;6.70;71.30;;;;;;5114562;28;20123;-69
2023/05/03 06:00:44;;;;;;;0.20;0.20;;;6.70;71.30;;;;;;5095477;28;20502;-68
2023/05/03 06:03:10;;;;;;;0.22;0.20;;;6.80;71.30;;;;;;5114442;28;20088;-69
2023/05/03 06:05:35;;;;;;;0.20;0.20;;;7.00;71.30;;;;;;5114313;28;20071;-69
2023/05/03 06:08:01;;;;;;;1.30;0.30;;;7.10;71.20;;;;;;5114305;28;20078;-68
2023/05/03 06:10:27;;;;;;;0.22;0.22;;;7.00;71.10;;;;;;5114878;28;20046;-69
2023/05/03 06:12:52;;;;;;;0.55;0.35;;;7.10;71.00;;;;;;5079044;28;20047;-69
2023/05/03 06:15:18;;;;;;;0.20;0.20;;;7.20;71.00;;;;;;5114793;28;20051;-69
2023/05/03 06:17:44;;;;;;;0.88;0.32;;;7.20;70.90;;;;;;5114293;28;20051;-69
2023/05/03 06:20:11;;;;;;;0.25;0.25;;;7.20;70.80;;;;;;5114826;28;20035;-69
2023/05/03 06:22:37;;;;;;;0.35;0.35;;;7.40;70.80;;;;;;5114772;28;20031;-69
2023/05/03 06:25:03;;;;;;;0.20;0.20;;;7.30;70.60;;;;;;5096117;28;20040;-69
2023/05/03 06:27:29;;;;;;;0.95;0.30;;;7.40;70.00;;;;;;5114736;28;20115;-69
2023/05/03 06:29:55;;;;;;;0.10;0.10;;;7.40;71.10;;;;;;5096844;28;20161;-69
2023/05/03 06:32:22;;;;;;;0.20;0.20;;;7.50;71.10;;;;;;5114255;28;20511;-69
2023/05/03 06:34:48;;;;;;;0.30;0.30;;;7.60;70.50;;;;;;5114696;28;20073;-69
2023/05/03 06:37:14;;;;;;;0.32;0.20;;;7.60;70.40;;;;;;5114597;28;20039;-69
2023/05/03 06:39:40;;;;;;;1.23;0.30;;;7.70;70.40;;;;;;5114197;28;20378;-68
2023/05/03 06:42:06;;;;;;;0.20;0.20;;;7.80;70.30;;;;;;5078919;28;20040;-69
2023/05/03 06:44:32;;;;;;;0.10;0.10;;;7.70;73.80;;;;;;5114086;28;20066;-69
2023/05/03 06:46:58;;;;;;;1.35;0.40;;;7.90;70.10;;;;;;5113221;28;20426;-68
2023/05/03 06:49:23;;;;;;;0.25;0.25;;;7.90;70.00;;;;;;5095961;28;20045;-69
2023/05/03 06:51:49;;;;;;;0.20;0.20;;;7.90;70.00;;;;;;5113754;28;20051;-71
2023/05/03 06:54:15;;;;;;;0.40;0.30;;;8.00;69.80;;;;;;5113698;28;20047;-70
2023/05/03 06:56:40;;;;;;;1.20;0.20;;;8.20;69.90;;;;;;5112274;28;20047;-70
2023/05/03 06:59:07;;;;;;;0.30;0.30;;;8.10;69.80;;;;;;5113666;28;20481;-69
2023/05/03 07:01:33;;;;;;;0.43;0.30;;;8.20;69.70;;;;;;5113578;28;20044;-70
2023/05/03 07:03:59;;;;;;;0.60;0.30;;;8.30;69.70;;;;;;5113671;28;20044;-70
2023/05/03 07:06:25;;;;;;;0.20;0.20;;;8.30;69.60;;;;;;5113582;28;20047;-69
2023/05/03 07:08:51;;;;;;;0.20;0.20;;;8.40;69.60;;;;;;5113599;28;20036;-69
2023/05/03 07:11:22;;;;;;;0.50;0.30;;;8.40;69.50;;;;;;5113563;28;20044;-69
2023/05/03 07:13:53;;;;;;;0.22;0.22;;;8.50;69.40;;;;;;5038034;28;20075;-69
2023/05/03 07:16:19;;;;;;;0.38;0.38;;;8.60;69.40;;;;;;5021290;28;20103;-69
2023/05/03 07:19:21;;;;;;;0.20;0.20;;;8.70;69.30;;;;;;5037615;28;20048;-69
2023/05/03 07:21:52;;;;;;;0.30;0.25;;;8.70;69.30;;;;;;5038628;28;20040;-69
2023/05/03 07:24:24;;;;;;;0.30;0.28;;;8.80;69.10;;;;;;5038726;28;20036;-68
2023/05/03 07:27:02;;;;;;;0.20;0.20;;;8.90;69.00;;;;;;5055417;28;20040;-69
2023/05/03 07:29:31;;;;;;;0.30;0.30;;;9.00;68.90;;;;;;5054163;28;20193;-68
2023/05/03 07:32:03;;;;;;;1.98;0.38;;;9.10;68.80;;;;;;5021183;28;20047;-69
2023/05/03 07:34:31;;;;;;;0.25;0.25;;;9.10;68.60;;;;;;5070495;28;20036;-68
2023/05/03 07:37:03;;;;;;;0.57;0.40;;;9.20;68.60;;;;;;5053854;28;20052;-69
2023/05/03 07:39:54;;;;;;;0.32;0.30;;;9.30;68.50;;;;;;5028985;28;20135;-69
2023/05/03 07:42:33;;;;;;;0.52;0.30;;;9.40;68.40;;;;;;5046758;28;20044;-69
2023/05/03 07:45:08;;;;;;;0.20;0.20;;;9.50;68.20;;;;;;5062063;28;20033;-69
2023/05/03 07:47:41;;;;;;;0.40;0.40;;;9.70;68.10;;;;;;5037438;28;20075;-69
2023/05/03 07:50:08;;;;;;;0.75;0.30;;;9.90;68.00;;;;;;5013727;28;20128;-69
2023/05/03 07:52:50;;;;;;;0.47;0.40;;;10.10;67.80;;;;;;5013983;28;20045;-69
2023/05/03 07:55:19;;;;;;;0.20;0.20;;;10.30;67.60;;;;;;4956129;28;20504;-68
2023/05/03 07:57:58;;;;;;;1.23;0.40;;;10.40;67.20;;;;;;4954816;28;20047;-68
2023/05/03 08:00:59;;;;;;;0.40;0.40;;;10.60;67.00;;;;;;4914106;29;20048;-68
2023/05/03 08:03:30;;;;;;;0.20;0.20;;;10.70;66.90;;;;;;4874716;29;20066;-68
2023/05/03 08:05:56;;;;;;;0.35;0.30;;;10.90;66.80;;;;;;4895472;29;20045;-68
2023/05/03 08:08:24;;;;;;;0.50;0.40;;;11.10;66.80;;;;;;4893295;29;20044;-68
2023/05/03 08:10:56;;;;;;;0.25;0.25;;;11.30;66.60;;;;;;4892878;29;20142;-68
2023/05/03 08:13:25;;;;;;;0.68;0.50;;;11.50;66.40;;;;;;4910246;29;20044;-69
2023/05/03 08:16:12;;;;;;;0.52;0.40;;;11.70;66.20;;;;;;4908717;29;20089;-68
2023/05/03 08:18:39;;;;;;;0.45;0.40;;;11.80;65.90;;;;;;4910976;29;20044;-68
2023/05/03 08:21:27;;;;;;;0.30;0.30;;;11.90;66.00;;;;;;4952017;28;20051;-69
2023/05/03 08:24:04;;;;;;;0.28;0.28;;;12.00;65.90;;;;;;4938450;29;20043;-69
2023/05/03 08:26:34;;;;;;;0.45;0.35;;;12.00;66.00;;;;;;4937021;28;20482;-69
2023/05/03 08:32:01;;;;;;;0.68;0.38;;;12.50;65.60;;;;;;5010670;28;20037;-70
2023/05/03 08:34:31;;;;;;;0.43;0.28;;;12.60;65.30;;;;;;5033619;28;20494;-71
2023/05/03 08:37:00;;;;;;;0.30;0.30;;;12.70;65.40;;;;;;5033756;28;20116;-71
2023/05/03 08:39:35;;;;;;;0.30;0.30;;;12.70;65.40;;;;;;4990262;28;20163;-71
2023/05/03 08:42:11;;;;;;;0.30;0.30;;;12.80;65.40;;;;;;4975269;28;20064;-70
2023/05/03 08:44:50;;;;;;;0.63;0.40;;;12.90;65.40;;;;;;4974889;28;20081;-69
2023/05/03 08:47:24;;;;;;;0.40;0.40;;;13.00;65.40;;;;;;4976004;28;20130;-69
2023/05/03 08:49:52;;;;;;;1.70;0.50;;;13.10;65.30;;;;;;5016885;28;20056;-70
2023/05/03 08:52:22;;;;;;;0.60;0.40;;;13.20;65.10;;;;;;5033436;28;20067;-70
2023/05/03 08:54:49;;;;;;;0.30;0.30;;;13.20;65.10;;;;;;4993859;28;20044;-70
2023/05/03 08:57:28;;;;;;;0.98;0.30;;;13.20;65.20;;;;;;4977905;28;20065;-68
2023/05/03 09:00:37;;;;;;;0.30;0.20;;;13.30;65.30;;;;;;4935206;29;20043;-70
2023/05/03 09:03:04;;;;;;;0.20;0.20;;;13.50;65.10;;;;;;4932090;29;20052;-70
2023/05/03 09:05:37;;;;;;;1.42;0.32;;;13.70;65.00;;;;;;4897470;29;20060;-68
2023/05/03 09:08:09;;;;;;;0.52;0.40;;;14.00;64.80;;;;;;4893962;29;20047;-68
2023/05/03 09:10:39;;;;;;;0.30;0.30;;;14.00;64.40;;;;;;4910425;29;20043;-68
2023/05/03 09:13:15;;;;;;;2.13;0.43;;;14.00;64.40;;;;;;4932955;29;20046;-68
2023/05/03 09:16:04;;;;;;;0.40;0.40;;;14.00;64.70;;;;;;4948994;29;20091;-68
2023/05/03 09:18:30;;;;;;;0.32;0.32;;;14.20;64.60;;;;;;4947241;29;20069;-68
2023/05/03 09:20:56;;;;;;;0.30;0.30;;;14.30;64.50;;;;;;4949630;28;20067;-68
2023/05/03 09:23:34;;;;;;;0.40;0.40;;;14.30;64.30;;;;;;4934806;29;20516;-68
2023/05/03 09:26:08;;;;;;;0.40;0.40;;;14.40;64.50;;;;;;4915447;29;20044;-68
2023/05/03 09:28:42;;;;;;;0.30;0.30;;;14.50;64.30;;;;;;4932851;29;20036;-68
2023/05/03 09:31:08;;;;;;;0.28;0.28;;;14.50;64.00;;;;;;4963208;28;20134;-68
2023/05/03 09:33:33;;;;;;;0.68;0.50;;;14.60;64.40;;;;;;4954565;29;20134;-69
2023/05/03 09:36:01;;;;;;;0.77;0.38;;;14.50;64.50;;;;;;4957090;28;20047;-69
2023/05/03 09:38:29;;;;;;;0.57;0.50;;;14.50;64.50;;;;;;4983796;28;20042;-68
2023/05/03 09:40:55;;;;;;;1.30;0.35;;;14.50;64.60;;;;;;4996092;28;20041;-68
2023/05/03 09:43:21;;;;;;;0.30;0.30;;;14.50;64.50;;;;;;4996667;28;20065;-69
2023/05/03 09:45:47;;;;;;;0.30;0.30;;;14.50;64.50;;;;;;4996562;28;20479;-70
2023/05/03 09:48:12;;;;;;;0.50;0.40;;;14.70;64.30;;;;;;5012654;28;20506;-70
2023/05/03 09:50:41;;;;;;;0.40;0.40;;;14.80;64.40;;;;;;5034350;28;20092;-69
2023/05/03 09:53:19;;;;;;;0.30;0.30;;;14.70;64.20;;;;;;5093355;28;20074;-69
2023/05/03 09:55:49;;;;;;;0.50;0.43;;;14.80;64.00;;;;;;5058755;28;20121;-69
2023/05/03 09:58:17;;;;;;;0.77;0.60;;;14.70;64.10;;;;;;5035549;28;20044;-69
2023/05/03 10:00:55;;;;;;;0.63;0.40;;;14.70;64.10;;;;;;5051690;28;20131;-71
2023/05/03 10:04:05;;;;;;;0.95;0.43;;;14.80;64.30;;;;;;5036628;28;20049;-70
2023/05/03 10:06:44;;;;;;;0.43;0.35;;;14.70;64.10;;;;;;5035326;28;20041;-71
2023/05/03 10:12:29;;;;;;;0.38;0.38;;;14.80;64.10;;;;;;5023455;28;20055;-69
2023/05/03 10:15:10;;;;;;;1.33;0.40;;;14.80;64.10;;;;;;5018443;28;20044;-69
2023/05/03 10:17:38;;;;;;;0.38;0.38;;;14.80;64.10;;;;;;5015137;28;20049;-70
2023/05/03 10:20:35;;;;;;;0.30;0.30;;;15.00;63.90;;;;;;5016579;28;20041;-69
2023/05/03 10:23:15;;;;;;;0.82;0.50;;;15.10;63.60;;;;;;5047165;28;20045;-69
2023/05/03 10:26:14;;;;;;;0.30;0.30;;;15.20;63.40;;;;;;4995389;28;20120;-69
2023/05/03 10:28:53;;;;;;;0.30;0.30;;;15.00;63.40;;;;;;5021881;28;20593;-70
2023/05/03 10:31:46;;;;;;;0.50;0.50;;;15.00;63.60;;;;;;4994920;28;20045;-69
2023/05/03 10:34:20;;;;;;;0.50;0.50;;;15.00;63.70;;;;;;5011578;28;20045;-69
2023/05/03 10:36:49;;;;;;;0.80;0.60;;;15.00;63.50;;;;;;5011759;28;20045;-69
2023/05/03 10:39:17;;;;;;;0.47;0.47;;;14.90;63.40;;;;;;5011586;28;20041;-69
2023/05/03 10:41:42;;;;;;;0.80;0.60;;;14.90;63.50;;;;;;5011554;28;20096;-69
2023/05/03 10:44:33;;;;;;;0.93;0.50;;;14.90;63.60;;;;;;5011597;28;20129;-69
2023/05/03 10:47:10;;;;;;;0.50;0.50;;;14.90;63.50;;;;;;5011755;28;20046;-69
2023/05/03 10:49:35;;;;;;;0.70;0.38;;;14.90;63.50;;;;;;5011767;28;20050;-69
2023/05/03 10:52:04;;;;;;;0.50;0.50;;;15.00;63.50;;;;;;5011527;28;20049;-68
2023/05/03 10:54:34;;;;;;;0.70;0.38;;;15.20;63.40;;;;;;5011465;28;20073;-69
2023/05/03 10:57:02;;;;;;;1.38;0.50;;;15.20;63.20;;;;;;5059630;28;20079;-69
2023/05/03 10:59:46;;;;;;;0.47;0.47;;;15.30;62.90;;;;;;5077296;28;20036;-69
2023/05/03 11:02:17;;;;;;;0.82;0.60;;;15.30;62.70;;;;;;5062102;28;20035;-68
2023/05/03 11:04:47;;;;;;;0.73;0.40;;;15.30;62.60;;;;;;5114230;28;20064;-69
2023/05/03 11:07:21;;;;;;;0.40;0.40;;;15.30;62.60;;;;;;5114272;28;20546;-69
2023/05/03 11:09:47;;;;;;;0.70;0.50;;;15.40;62.70;;;;;;5113620;28;20031;-69
2023/05/03 11:12:12;;;;;;;0.47;0.43;;;15.50;62.50;;;;;;5114190;28;20081;-69
2023/05/03 11:14:39;;;;;;;1.02;0.57;;;15.50;62.20;;;;;;5113576;28;20509;-68
2023/05/03 11:17:07;;;;;;;0.70;0.50;;;15.60;62.00;;;;;;5094379;28;20044;-68
2023/05/03 11:19:34;;;;;;;0.50;0.50;;;15.70;61.90;;;;;;5078348;28;20039;-68
2023/05/03 11:22:02;;;;;;;0.75;0.52;;;15.70;61.60;;;;;;5078487;28;20044;-68
2023/05/03 11:24:28;;;;;;;0.30;0.30;;;15.60;61.50;;;;;;5113452;28;20040;-68
2023/05/03 11:26:54;;;;;;;0.45;0.40;;;15.50;61.80;;;;;;5094910;28;20035;-67
2023/05/03 11:29:20;;;;;;;0.30;0.30;;;15.50;61.70;;;;;;5113093;28;20180;-68
2023/05/03 11:31:46;;;;;;;0.40;0.40;;;15.50;61.60;;;;;;5112805;28;20103;-68
2023/05/03 11:34:14;;;;;;;0.30;0.30;;;15.60;61.70;;;;;;5094865;28;20548;-68
2023/05/03 11:36:41;;;;;;;0.60;0.60;;;15.60;61.50;;;;;;5095342;28;20508;-68
2023/05/03 11:39:09;;;;;;;0.40;0.40;;;15.70;61.40;;;;;;5113708;28;20040;-67
2023/05/03 11:41:35;;;;;;;0.40;0.40;;;15.70;61.30;;;;;;5077493;28;20072;-68
2023/05/03 11:44:04;;;;;;;0.68;0.50;;;15.80;61.10;;;;;;5078754;28;20031;-68
2023/05/03 11:46:34;;;;;;;0.30;0.30;;;15.90;61.00;;;;;;5078980;28;20122;-68
2023/05/03 11:49:01;;;;;;;0.40;0.40;;;15.90;60.80;;;;;;5076655;28;20028;-67
2023/05/03 11:51:27;;;;;;;0.38;0.38;;;15.90;60.70;;;;;;5061615;28;20028;-68
2023/05/03 11:53:54;;;;;;;1.15;0.50;;;16.00;60.60;;;;;;5095173;28;20047;-68
2023/05/03 11:56:21;;;;;;;0.43;0.40;;;16.00;60.50;;;;;;5078086;28;20080;-67
2023/05/03 11:58:59;;;;;;;0.60;0.50;;;15.90;60.40;;;;;;5076389;28;20135;-67
2023/05/03 12:01:28;;;;;;;1.65;0.57;;;16.00;60.50;;;;;;5062581;28;20481;-67
2023/05/03 12:03:58;;;;;;;0.93;0.40;;;16.20;60.40;;;;;;5062209;28;20519;-68
2023/05/03 12:06:26;;;;;;;0.30;0.30;;;16.00;60.90;;;;;;5077711;28;20516;-67
2023/05/03 12:08:52;;;;;;;0.60;0.60;;;16.00;60.40;;;;;;5077717;28;20119;-68
2023/05/03 12:11:18;;;;;;;0.60;0.60;;;15.80;60.50;;;;;;5093840;28;20048;-67
2023/05/03 12:13:44;;;;;;;0.40;0.40;;;15.80;60.60;;;;;;5078454;28;20036;-68
2023/05/03 12:16:17;;;;;;;0.50;0.50;;;15.90;60.60;;;;;;5060793;28;20381;-67
2023/05/03 12:18:50;;;;;;;0.63;0.40;;;15.90;60.50;;;;;;5095956;28;20050;-68
2023/05/03 12:21:18;;;;;;;0.57;0.40;;;15.90;60.30;;;;;;5094375;28;20051;-69
2023/05/03 12:23:45;;;;;;;0.75;0.40;;;15.90;60.30;;;;;;5078445;28;20055;-68
2023/05/03 12:26:22;;;;;;;1.25;0.55;;;15.90;60.40;;;;;;5060309;28;20123;-68
2023/05/03 12:28:48;;;;;;;1.08;0.50;;;15.90;60.40;;;;;;5078596;28;20039;-68
2023/05/03 12:31:14;;;;;;;0.30;0.30;;;15.90;60.20;;;;;;5060684;28;20400;-68
2023/05/03 12:33:40;;;;;;;0.52;0.40;;;15.80;60.10;;;;;;5077533;28;20040;-68
2023/05/03 12:36:07;;;;;;;0.40;0.40;;;15.70;60.30;;;;;;5058872;28;20076;-68
2023/05/03 12:38:34;;;;;;;1.10;0.57;;;15.90;60.40;;;;;;5112686;28;20036;-68
2023/05/03 12:40:59;;;;;;;1.17;0.50;;;15.80;60.10;;;;;;5077275;28;20036;-68
2023/05/03 12:43:25;;;;;;;0.40;0.40;;;15.80;60.10;;;;;;5059433;28;20044;-68
2023/05/03 12:45:51;;;;;;;0.73;0.40;;;15.90;60.10;;;;;;5097768;28;20028;-68
2023/05/03 12:48:17;;;;;;;0.40;0.40;;;15.90;59.90;;;;;;5064229;28;20048;-67
2023/05/03 12:50:43;;;;;;;0.80;0.50;;;15.80;59.90;;;;;;5080733;28;20058;-68
2023/05/03 12:53:08;;;;;;;0.35;0.35;;;15.70;59.90;;;;;;5079178;28;20123;-67
2023/05/03 12:55:34;;;;;;;0.40;0.40;;;15.80;59.90;;;;;;5080783;28;20109;-68
2023/05/03 12:58:03;;;;;;;0.50;0.50;;;15.90;59.90;;;;;;5097921;28;20040;-68
2023/05/03 13:00:30;;;;;;;0.43;0.43;;;15.90;59.80;;;;;;5081448;28;20047;-67
2023/05/03 13:03:02;;;;;;;0.68;0.50;;;15.80;59.70;;;;;;5055981;28;20037;-68
2023/05/03 13:05:28;;;;;;;0.40;0.40;;;15.80;59.70;;;;;;5039592;28;20047;-67
2023/05/03 13:07:54;;;;;;;0.63;0.57;;;15.70;59.70;;;;;;4994612;28;20042;-67
2023/05/03 13:10:21;;;;;;;0.98;0.47;;;15.60;59.80;;;;;;4980213;28;20056;-68
2023/05/03 13:12:50;;;;;;;0.47;0.40;;;15.70;59.90;;;;;;4962320;28;20052;-68